San Antonio, Texas
Traffic Map
Current Weather Conditions
San Antonio, Texas
Clear
Clear

Feels Like: 7°
Wind Chill: Ceiling: Unl
Heat Index: Visibility: 10mi
Dew Point: Wind: 0mph
Humidity: 76% Direction: ° ()
Pressure: 30.36in Gusts: 0mph
Raw Report DataKSKF 280558Z AUTO 00000KT 10SM CLR 07/03 A3036 RMK AO2 SLP281 T00660026 10151 20058 401830058 57007 $
Traffic Incident Summary
Active as of:
Severity:
Category:
InformationThere was an issue retrieving the traffic information for this location. Please try a different location or try again shortly.
Advertisements
Track Severe Weather on mobile